N60781 KBNA-M91
Flight info
| Callsign | N60781 |
|---|---|
| Flight time | N/A |
| Altitude | VFR |
| Route | |
| Aircraft | C150/L-DOV/C |
Departure
| Time | 2026-05-04 04:08 |
|---|---|
| Airport | Nashville International Airport (KBNA) |
Arrival
| Time | N/A |
|---|---|
| Airport | M91 |
| Time | Latitude | Longitude | Altitude | Speed | Heading |
|---|---|---|---|---|---|
| 2026-05-04 04:00 | 36.12780 | -86.67257 | 573 ft | 0 kts | 196° |
| 2026-05-04 04:03 | 36.12769 | -86.67261 | 573 ft | 6 kts | 223° |
| 2026-05-04 04:03 | 36.12795 | -86.67322 | 575 ft | 13 kts | 256° |
| 2026-05-04 04:03 | 36.12742 | -86.67402 | 575 ft | 14 kts | 224° |
| 2026-05-04 04:03 | 36.12651 | -86.67476 | 578 ft | 18 kts | 208° |
| 2026-05-04 04:04 | 36.12539 | -86.67571 | 580 ft | 21 kts | 230° |
| 2026-05-04 04:04 | 36.12471 | -86.67656 | 581 ft | 12 kts | 219° |
| 2026-05-04 04:04 | 36.12377 | -86.67700 | 580 ft | 9 kts | 198° |
| 2026-05-04 04:04 | 36.12357 | -86.67752 | 579 ft | 7 kts | 287° |
| 2026-05-04 04:05 | 36.12371 | -86.67813 | 578 ft | 13 kts | 291° |
| 2026-05-04 04:05 | 36.12386 | -86.67865 | 577 ft | 0 kts | 287° |
| 2026-05-04 04:05 | 36.12393 | -86.67891 | 577 ft | 11 kts | 288° |
| 2026-05-04 04:05 | 36.12381 | -86.67982 | 576 ft | 7 kts | 197° |
| 2026-05-04 04:06 | 36.12379 | -86.67983 | 576 ft | 0 kts | 202° |
| 2026-05-04 04:07 | 36.12225 | -86.68043 | 574 ft | 51 kts | 198° |
| 2026-05-04 04:07 | 36.11771 | -86.68224 | 658 ft | 75 kts | 199° |
| 2026-05-04 04:08 | 36.11280 | -86.68424 | 876 ft | 72 kts | 200° |
| 2026-05-04 04:08 | 36.10783 | -86.68612 | 1051 ft | 77 kts | 198° |
| 2026-05-04 04:08 | 36.10258 | -86.68769 | 1244 ft | 78 kts | 194° |
| 2026-05-04 04:08 | 36.09740 | -86.68931 | 1438 ft | 77 kts | 200° |
| 2026-05-04 04:09 | 36.09285 | -86.69290 | 1586 ft | 80 kts | 233° |
| 2026-05-04 04:09 | 36.09139 | -86.69928 | 1775 ft | 79 kts | 278° |
| 2026-05-04 04:09 | 36.09418 | -86.70495 | 1937 ft | 80 kts | 321° |
| 2026-05-04 04:09 | 36.09930 | -86.70755 | 2113 ft | 81 kts | 340° |
| 2026-05-04 04:10 | 36.10448 | -86.70977 | 2314 ft | 79 kts | 338° |
| 2026-05-04 04:10 | 36.10954 | -86.71244 | 2488 ft | 79 kts | 332° |
| 2026-05-04 04:10 | 36.11445 | -86.71550 | 2663 ft | 78 kts | 330° |
| 2026-05-04 04:10 | 36.11932 | -86.71868 | 2824 ft | 80 kts | 328° |
| 2026-05-04 04:11 | 36.12421 | -86.72181 | 2994 ft | 80 kts | 332° |
| 2026-05-04 04:11 | 36.12952 | -86.72492 | 2983 ft | 93 kts | 334° |
| 2026-05-04 04:11 | 36.13544 | -86.72819 | 2997 ft | 96 kts | 333° |
| 2026-05-04 04:11 | 36.14145 | -86.73170 | 3021 ft | 96 kts | 331° |
| 2026-05-04 04:12 | 36.14735 | -86.73554 | 3042 ft | 95 kts | 330° |
| 2026-05-04 04:12 | 36.15308 | -86.73968 | 3063 ft | 95 kts | 326° |
| 2026-05-04 04:12 | 36.15910 | -86.74338 | 3067 ft | 97 kts | 334° |
| 2026-05-04 04:12 | 36.16496 | -86.74733 | 3087 ft | 97 kts | 322° |
| 2026-05-04 04:13 | 36.17025 | -86.75264 | 3070 ft | 98 kts | 320° |
| 2026-05-04 04:13 | 36.17573 | -86.75781 | 3064 ft | 99 kts | 321° |
| 2026-05-04 04:13 | 36.18131 | -86.76271 | 3071 ft | 99 kts | 327° |
| 2026-05-04 04:13 | 36.18762 | -86.76632 | 3068 ft | 99 kts | 337° |
| 2026-05-04 04:14 | 36.19410 | -86.76916 | 3076 ft | 100 kts | 341° |
| 2026-05-04 04:14 | 36.20102 | -86.77149 | 3020 ft | 102 kts | 342° |
| 2026-05-04 04:14 | 36.20770 | -86.77389 | 3031 ft | 100 kts | 341° |
| 2026-05-04 04:14 | 36.21430 | -86.77655 | 3019 ft | 100 kts | 339° |
| 2026-05-04 04:15 | 36.22079 | -86.77951 | 3023 ft | 99 kts | 337° |
| 2026-05-04 04:15 | 36.22715 | -86.78287 | 3025 ft | 99 kts | 333° |
| 2026-05-04 04:15 | 36.23334 | -86.78654 | 3018 ft | 99 kts | 331° |
| 2026-05-04 04:15 | 36.23993 | -86.79010 | 2933 ft | 104 kts | 339° |
| 2026-05-04 04:16 | 36.24642 | -86.79275 | 3014 ft | 97 kts | 340° |
| 2026-05-04 04:16 | 36.25311 | -86.79527 | 2978 ft | 101 kts | 341° |
| 2026-05-04 04:16 | 36.25975 | -86.79741 | 2999 ft | 100 kts | 345° |
| 2026-05-04 04:16 | 36.26659 | -86.79910 | 3003 ft | 99 kts | 348° |
| 2026-05-04 04:17 | 36.27347 | -86.80031 | 2988 ft | 100 kts | 352° |
| 2026-05-04 04:17 | 36.28044 | -86.80093 | 2983 ft | 100 kts | 355° |
| 2026-05-04 04:17 | 36.28742 | -86.80112 | 2987 ft | 101 kts | 358° |
| 2026-05-04 04:17 | 36.29443 | -86.80083 | 2990 ft | 101 kts | 1° |
| 2026-05-04 04:18 | 36.30144 | -86.80008 | 2986 ft | 101 kts | 4° |
| 2026-05-04 04:18 | 36.30845 | -86.79916 | 2990 ft | 102 kts | 4° |
| 2026-05-04 04:18 | 36.31545 | -86.79829 | 3003 ft | 101 kts | 3° |
| 2026-05-04 04:18 | 36.32241 | -86.79793 | 3038 ft | 94 kts | 351° |
| 2026-05-04 04:19 | 36.32885 | -86.79992 | 2947 ft | 106 kts | 341° |
| 2026-05-04 04:19 | 36.33604 | -86.80276 | 2828 ft | 107 kts | 341° |
| 2026-05-04 04:19 | 36.34269 | -86.80512 | 2932 ft | 95 kts | 342° |
| 2026-05-04 04:19 | 36.34924 | -86.80793 | 2876 ft | 101 kts | 337° |
| 2026-05-04 04:20 | 36.35571 | -86.81085 | 2912 ft | 100 kts | 341° |
| 2026-05-04 04:20 | 36.36239 | -86.81329 | 2938 ft | 99 kts | 339° |
| 2026-05-04 04:20 | 36.36875 | -86.81652 | 2961 ft | 99 kts | 333° |
| 2026-05-04 04:20 | 36.37497 | -86.82016 | 2993 ft | 98 kts | 335° |
| 2026-05-04 04:21 | 36.38139 | -86.82329 | 3009 ft | 99 kts | 338° |
| 2026-05-04 04:21 | 36.38783 | -86.82630 | 3041 ft | 99 kts | 336° |
| 2026-05-04 04:21 | 36.39422 | -86.82952 | 3045 ft | 99 kts | 335° |
| 2026-05-04 04:21 | 36.40062 | -86.83266 | 3065 ft | 99 kts | 338° |
| 2026-05-04 04:22 | 36.40718 | -86.83542 | 3075 ft | 100 kts | 338° |
| 2026-05-04 04:22 | 36.41356 | -86.83864 | 3082 ft | 99 kts | 334° |
| 2026-05-04 04:22 | 36.42005 | -86.84181 | 3087 ft | 100 kts | 336° |
| 2026-05-04 04:22 | 36.42615 | -86.84567 | 3129 ft | 97 kts | 327° |
| 2026-05-04 04:23 | 36.43200 | -86.84974 | 3139 ft | 101 kts | 330° |
| 2026-05-04 04:23 | 36.43818 | -86.85381 | 3166 ft | 98 kts | 331° |
| 2026-05-04 04:23 | 36.44443 | -86.85740 | 3150 ft | 101 kts | 336° |
| 2026-05-04 04:23 | 36.45095 | -86.86041 | 3175 ft | 99 kts | 339° |
| 2026-05-04 04:24 | 36.45749 | -86.86320 | 3166 ft | 101 kts | 339° |
| 2026-05-04 04:24 | 36.46448 | -86.86641 | 3005 ft | 109 kts | 338° |
| 2026-05-04 04:24 | 36.47147 | -86.86939 | 2985 ft | 105 kts | 340° |
| 2026-05-04 04:24 | 36.47819 | -86.87204 | 3026 ft | 98 kts | 340° |
| 2026-05-04 04:25 | 36.48430 | -86.87513 | 2923 ft | 98 kts | 320° |
| 2026-05-04 04:25 | 36.49030 | -86.87984 | 2537 ft | 102 kts | 340° |
| 2026-05-04 04:25 | 36.49613 | -86.88458 | 2415 ft | 98 kts | 324° |
| 2026-05-04 04:25 | 36.50205 | -86.88952 | 2257 ft | 101 kts | 325° |
| 2026-05-04 04:26 | 36.50777 | -86.89440 | 2156 ft | 99 kts | 323° |
| 2026-05-04 04:26 | 36.51326 | -86.89926 | 2015 ft | 97 kts | 322° |
| 2026-05-04 04:26 | 36.51889 | -86.90389 | 1819 ft | 99 kts | 328° |
| 2026-05-04 04:26 | 36.52506 | -86.90766 | 1635 ft | 98 kts | 336° |
| 2026-05-04 04:27 | 36.53182 | -86.90696 | 1443 ft | 104 kts | 28° |
| 2026-05-04 04:27 | 36.53741 | -86.90131 | 1370 ft | 100 kts | 41° |
| 2026-05-04 04:27 | 36.54261 | -86.89610 | 1386 ft | 97 kts | 25° |
| 2026-05-04 04:27 | 36.54916 | -86.89582 | 1331 ft | 98 kts | 336° |
| 2026-05-04 04:28 | 36.55432 | -86.90012 | 1377 ft | 93 kts | 312° |
| 2026-05-04 04:28 | 36.55516 | -86.90681 | 1331 ft | 80 kts | 239° |
| 2026-05-04 04:28 | 36.55030 | -86.91046 | 1099 ft | 80 kts | 192° |
| 2026-05-04 04:28 | 36.54538 | -86.91406 | 862 ft | 77 kts | 211° |
| 2026-05-04 04:29 | 36.54157 | -86.91718 | 716 ft | 50 kts | 211° |
| 2026-05-04 04:29 | 36.53973 | -86.91863 | 714 ft | 15 kts | 178° |
| 2026-05-04 04:29 | 36.53860 | -86.91832 | 711 ft | 17 kts | 175° |
| 2026-05-04 04:29 | 36.53861 | -86.91801 | 711 ft | 3 kts | 301° |
| 2026-05-04 04:30 | 36.53861 | -86.91802 | 711 ft | 0 kts | 298° |